sensor_id;sensor_type;location;lat;lon;timestamp;P1;durP1;ratioP1;P2;durP2;ratioP2
29384;SDS011;16367;48.736;9.218;2023-02-16T00:00:03;18.40;;;9.02;;
29384;SDS011;16367;48.736;9.218;2023-02-16T00:02:08;21.83;;;9.05;;
29384;SDS011;16367;48.736;9.218;2023-02-16T00:04:14;18.73;;;8.32;;
29384;SDS011;16367;48.736;9.218;2023-02-16T00:06:21;18.23;;;8.63;;
29384;SDS011;16367;48.736;9.218;2023-02-16T00:08:24;20.10;;;8.95;;
29384;SDS011;16367;48.736;9.218;2023-02-16T00:10:28;18.58;;;8.70;;
29384;SDS011;16367;48.736;9.218;2023-02-16T00:12:34;19.52;;;9.07;;
29384;SDS011;16367;48.736;9.218;2023-02-16T00:14:54;16.75;;;7.45;;
29384;SDS011;16367;48.736;9.218;2023-02-16T00:16:57;21.38;;;9.27;;
29384;SDS011;16367;48.736;9.218;2023-02-16T00:19:00;17.08;;;7.63;;
29384;SDS011;16367;48.736;9.218;2023-02-16T00:21:03;18.70;;;8.45;;
29384;SDS011;16367;48.736;9.218;2023-02-16T00:23:08;18.45;;;7.93;;
29384;SDS011;16367;48.736;9.218;2023-02-16T00:25:10;18.55;;;7.90;;
29384;SDS011;16367;48.736;9.218;2023-02-16T00:27:14;19.60;;;7.72;;
29384;SDS011;16367;48.736;9.218;2023-02-16T00:29:20;17.85;;;8.68;;
29384;SDS011;16367;48.736;9.218;2023-02-16T00:31:27;23.48;;;8.10;;
29384;SDS011;16367;48.736;9.218;2023-02-16T00:33:33;18.40;;;8.50;;
29384;SDS011;16367;48.736;9.218;2023-02-16T00:35:35;15.60;;;7.43;;
29384;SDS011;16367;48.736;9.218;2023-02-16T00:37:38;15.15;;;8.15;;
29384;SDS011;16367;48.736;9.218;2023-02-16T00:39:42;19.38;;;8.07;;
29384;SDS011;16367;48.736;9.218;2023-02-16T00:41:46;17.00;;;7.90;;
29384;SDS011;16367;48.736;9.218;2023-02-16T00:43:51;18.38;;;8.98;;
29384;SDS011;16367;48.736;9.218;2023-02-16T00:45:55;18.10;;;9.25;;
29384;SDS011;16367;48.736;9.218;2023-02-16T00:47:58;16.83;;;8.15;;
29384;SDS011;16367;48.736;9.218;2023-02-16T00:50:02;19.05;;;8.80;;
29384;SDS011;16367;48.736;9.218;2023-02-16T00:52:11;17.00;;;8.35;;
29384;SDS011;16367;48.736;9.218;2023-02-16T00:54:28;22.98;;;9.50;;
29384;SDS011;16367;48.736;9.218;2023-02-16T00:56:33;22.95;;;9.30;;
29384;SDS011;16367;48.736;9.218;2023-02-16T00:58:36;22.85;;;10.23;;
29384;SDS011;16367;48.736;9.218;2023-02-16T01:00:39;22.67;;;10.73;;
29384;SDS011;16367;48.736;9.218;2023-02-16T01:02:46;18.02;;;9.30;;
29384;SDS011;16367;48.736;9.218;2023-02-16T01:04:49;21.10;;;9.98;;
29384;SDS011;16367;48.736;9.218;2023-02-16T01:06:53;23.50;;;10.25;;
29384;SDS011;16367;48.736;9.218;2023-02-16T01:09:13;23.17;;;10.63;;
29384;SDS011;16367;48.736;9.218;2023-02-16T01:11:36;26.17;;;10.52;;
29384;SDS011;16367;48.736;9.218;2023-02-16T01:13:41;20.15;;;9.82;;
29384;SDS011;16367;48.736;9.218;2023-02-16T01:15:47;21.17;;;10.07;;
29384;SDS011;16367;48.736;9.218;2023-02-16T01:17:50;19.10;;;9.68;;
29384;SDS011;16367;48.736;9.218;2023-02-16T01:19:53;19.05;;;9.15;;
29384;SDS011;16367;48.736;9.218;2023-02-16T01:21:55;21.13;;;11.05;;
29384;SDS011;16367;48.736;9.218;2023-02-16T01:23:58;21.10;;;10.15;;
29384;SDS011;16367;48.736;9.218;2023-02-16T01:26:01;17.45;;;9.18;;
29384;SDS011;16367;48.736;9.218;2023-02-16T01:28:11;16.95;;;8.27;;
29384;SDS011;16367;48.736;9.218;2023-02-16T01:30:20;22.05;;;8.95;;
29384;SDS011;16367;48.736;9.218;2023-02-16T01:32:23;17.50;;;8.45;;
29384;SDS011;16367;48.736;9.218;2023-02-16T01:34:26;22.05;;;9.77;;
29384;SDS011;16367;48.736;9.218;2023-02-16T01:36:30;20.63;;;10.68;;
29384;SDS011;16367;48.736;9.218;2023-02-16T01:38:35;23.15;;;9.30;;
29384;SDS011;16367;48.736;9.218;2023-02-16T01:40:39;19.83;;;9.55;;
29384;SDS011;16367;48.736;9.218;2023-02-16T01:42:46;19.40;;;8.82;;
29384;SDS011;16367;48.736;9.218;2023-02-16T01:44:55;22.42;;;10.02;;
29384;SDS011;16367;48.736;9.218;2023-02-16T01:47:02;19.38;;;8.35;;
29384;SDS011;16367;48.736;9.218;2023-02-16T01:49:10;19.35;;;8.90;;
29384;SDS011;16367;48.736;9.218;2023-02-16T01:51:15;20.83;;;9.60;;
29384;SDS011;16367;48.736;9.218;2023-02-16T01:53:25;23.38;;;9.38;;
29384;SDS011;16367;48.736;9.218;2023-02-16T01:55:33;19.67;;;8.35;;
29384;SDS011;16367;48.736;9.218;2023-02-16T02:02:10;16.23;;;8.50;;
29384;SDS011;16367;48.736;9.218;2023-02-16T02:04:23;18.25;;;8.48;;
29384;SDS011;16367;48.736;9.218;2023-02-16T02:06:48;18.45;;;8.43;;
29384;SDS011;16367;48.736;9.218;2023-02-16T02:08:53;19.30;;;7.82;;
29384;SDS011;16367;48.736;9.218;2023-02-16T02:11:04;19.13;;;7.47;;
29384;SDS011;16367;48.736;9.218;2023-02-16T02:13:14;18.25;;;7.63;;
29384;SDS011;16367;48.736;9.218;2023-02-16T02:15:24;18.92;;;7.32;;
29384;SDS011;16367;48.736;9.218;2023-02-16T02:17:31;18.30;;;8.27;;
29384;SDS011;16367;48.736;9.218;2023-02-16T02:19:37;20.20;;;7.53;;
29384;SDS011;16367;48.736;9.218;2023-02-16T02:21:54;18.70;;;7.57;;
29384;SDS011;16367;48.736;9.218;2023-02-16T02:27:02;21.75;;;8.32;;
29384;SDS011;16367;48.736;9.218;2023-02-16T02:31:45;19.95;;;7.45;;
29384;SDS011;16367;48.736;9.218;2023-02-16T02:33:56;17.80;;;7.35;;
29384;SDS011;16367;48.736;9.218;2023-02-16T02:36:07;18.27;;;7.10;;
29384;SDS011;16367;48.736;9.218;2023-02-16T02:38:21;18.88;;;7.85;;
29384;SDS011;16367;48.736;9.218;2023-02-16T02:40:32;15.48;;;6.90;;
29384;SDS011;16367;48.736;9.218;2023-02-16T02:42:46;17.17;;;7.22;;
29384;SDS011;16367;48.736;9.218;2023-02-16T02:44:57;14.75;;;6.53;;
29384;SDS011;16367;48.736;9.218;2023-02-16T02:47:05;15.38;;;6.70;;
29384;SDS011;16367;48.736;9.218;2023-02-16T02:49:09;12.60;;;6.55;;
29384;SDS011;16367;48.736;9.218;2023-02-16T02:51:12;15.20;;;7.22;;
29384;SDS011;16367;48.736;9.218;2023-02-16T02:53:38;15.18;;;7.13;;
29384;SDS011;16367;48.736;9.218;2023-02-16T02:55:45;14.55;;;6.15;;
29384;SDS011;16367;48.736;9.218;2023-02-16T02:58:10;14.63;;;7.05;;
29384;SDS011;16367;48.736;9.218;2023-02-16T03:00:33;15.65;;;6.88;;
29384;SDS011;16367;48.736;9.218;2023-02-16T03:02:49;15.38;;;6.65;;
29384;SDS011;16367;48.736;9.218;2023-02-16T03:04:54;12.02;;;6.20;;
29384;SDS011;16367;48.736;9.218;2023-02-16T03:06:58;14.88;;;6.47;;
29384;SDS011;16367;48.736;9.218;2023-02-16T03:09:04;13.40;;;6.00;;
29384;SDS011;16367;48.736;9.218;2023-02-16T03:11:12;13.25;;;5.80;;
29384;SDS011;16367;48.736;9.218;2023-02-16T03:13:37;13.90;;;6.65;;
29384;SDS011;16367;48.736;9.218;2023-02-16T03:17:47;12.73;;;6.15;;
29384;SDS011;16367;48.736;9.218;2023-02-16T03:20:08;14.65;;;6.78;;
29384;SDS011;16367;48.736;9.218;2023-02-16T03:24:53;15.18;;;6.55;;
29384;SDS011;16367;48.736;9.218;2023-02-16T03:27:14;16.70;;;6.55;;
29384;SDS011;16367;48.736;9.218;2023-02-16T03:29:41;16.63;;;5.65;;
29384;SDS011;16367;48.736;9.218;2023-02-16T03:31:46;15.05;;;6.40;;
29384;SDS011;16367;48.736;9.218;2023-02-16T03:33:49;12.60;;;5.65;;
29384;SDS011;16367;48.736;9.218;2023-02-16T03:35:55;13.55;;;6.00;;
29384;SDS011;16367;48.736;9.218;2023-02-16T03:37:58;13.65;;;5.32;;
29384;SDS011;16367;48.736;9.218;2023-02-16T03:40:01;17.50;;;6.78;;
29384;SDS011;16367;48.736;9.218;2023-02-16T03:42:25;16.05;;;6.05;;
29384;SDS011;16367;48.736;9.218;2023-02-16T03:44:28;15.70;;;6.40;;
29384;SDS011;16367;48.736;9.218;2023-02-16T03:46:32;12.18;;;5.90;;
29384;SDS011;16367;48.736;9.218;2023-02-16T03:48:35;12.98;;;5.68;;
29384;SDS011;16367;48.736;9.218;2023-02-16T03:50:37;11.57;;;6.13;;
29384;SDS011;16367;48.736;9.218;2023-02-16T03:52:40;17.70;;;6.70;;
29384;SDS011;16367;48.736;9.218;2023-02-16T03:54:43;12.13;;;6.35;;
29384;SDS011;16367;48.736;9.218;2023-02-16T03:56:45;17.88;;;6.57;;
29384;SDS011;16367;48.736;9.218;2023-02-16T03:58:48;15.30;;;6.15;;
29384;SDS011;16367;48.736;9.218;2023-02-16T04:00:51;14.73;;;5.72;;
29384;SDS011;16367;48.736;9.218;2023-02-16T04:02:56;17.88;;;6.70;;
29384;SDS011;16367;48.736;9.218;2023-02-16T04:04:58;17.88;;;6.60;;
29384;SDS011;16367;48.736;9.218;2023-02-16T04:07:04;13.77;;;6.35;;
29384;SDS011;16367;48.736;9.218;2023-02-16T04:09:06;16.38;;;6.75;;
29384;SDS011;16367;48.736;9.218;2023-02-16T04:11:09;14.27;;;6.43;;
29384;SDS011;16367;48.736;9.218;2023-02-16T04:13:30;15.85;;;5.90;;
29384;SDS011;16367;48.736;9.218;2023-02-16T04:15:32;15.27;;;6.18;;
29384;SDS011;16367;48.736;9.218;2023-02-16T04:17:35;14.70;;;6.13;;
29384;SDS011;16367;48.736;9.218;2023-02-16T04:19:39;13.75;;;6.35;;
29384;SDS011;16367;48.736;9.218;2023-02-16T04:21:42;13.65;;;6.80;;
29384;SDS011;16367;48.736;9.218;2023-02-16T04:23:45;13.55;;;6.38;;
29384;SDS011;16367;48.736;9.218;2023-02-16T04:25:47;14.98;;;6.25;;
29384;SDS011;16367;48.736;9.218;2023-02-16T04:27:50;15.65;;;6.47;;
29384;SDS011;16367;48.736;9.218;2023-02-16T04:29:53;15.02;;;6.28;;
29384;SDS011;16367;48.736;9.218;2023-02-16T04:31:56;13.77;;;6.25;;
29384;SDS011;16367;48.736;9.218;2023-02-16T04:33:59;16.98;;;6.38;;
29384;SDS011;16367;48.736;9.218;2023-02-16T04:36:03;14.63;;;7.30;;
29384;SDS011;16367;48.736;9.218;2023-02-16T04:38:07;12.77;;;6.20;;
29384;SDS011;16367;48.736;9.218;2023-02-16T04:40:10;18.08;;;6.47;;
29384;SDS011;16367;48.736;9.218;2023-02-16T04:42:13;13.35;;;6.60;;
29384;SDS011;16367;48.736;9.218;2023-02-16T04:44:16;14.30;;;6.18;;
29384;SDS011;16367;48.736;9.218;2023-02-16T04:46:19;15.13;;;6.20;;
29384;SDS011;16367;48.736;9.218;2023-02-16T04:48:22;13.32;;;6.13;;
29384;SDS011;16367;48.736;9.218;2023-02-16T04:50:25;17.15;;;6.82;;
29384;SDS011;16367;48.736;9.218;2023-02-16T04:52:29;14.85;;;6.65;;
29384;SDS011;16367;48.736;9.218;2023-02-16T04:54:32;15.80;;;6.93;;
29384;SDS011;16367;48.736;9.218;2023-02-16T04:56:35;15.52;;;6.78;;
29384;SDS011;16367;48.736;9.218;2023-02-16T04:58:38;12.95;;;6.10;;
29384;SDS011;16367;48.736;9.218;2023-02-16T05:00:40;19.02;;;7.57;;
29384;SDS011;16367;48.736;9.218;2023-02-16T05:02:43;15.07;;;7.38;;
29384;SDS011;16367;48.736;9.218;2023-02-16T05:04:46;16.73;;;7.10;;
29384;SDS011;16367;48.736;9.218;2023-02-16T05:06:48;15.38;;;6.85;;
29384;SDS011;16367;48.736;9.218;2023-02-16T05:08:53;14.85;;;6.82;;
29384;SDS011;16367;48.736;9.218;2023-02-16T05:10:55;14.27;;;7.30;;
29384;SDS011;16367;48.736;9.218;2023-02-16T05:13:16;17.23;;;6.85;;
29384;SDS011;16367;48.736;9.218;2023-02-16T05:15:36;16.83;;;6.63;;
29384;SDS011;16367;48.736;9.218;2023-02-16T05:17:39;16.05;;;7.00;;
29384;SDS011;16367;48.736;9.218;2023-02-16T05:19:42;14.05;;;6.57;;
29384;SDS011;16367;48.736;9.218;2023-02-16T05:21:47;16.13;;;7.00;;
29384;SDS011;16367;48.736;9.218;2023-02-16T05:23:48;15.10;;;7.20;;
29384;SDS011;16367;48.736;9.218;2023-02-16T05:25:52;16.13;;;7.40;;
29384;SDS011;16367;48.736;9.218;2023-02-16T05:27:55;16.05;;;7.50;;
29384;SDS011;16367;48.736;9.218;2023-02-16T05:29:58;17.50;;;7.70;;
29384;SDS011;16367;48.736;9.218;2023-02-16T05:32:01;14.50;;;6.95;;
29384;SDS011;16367;48.736;9.218;2023-02-16T05:34:05;14.15;;;6.43;;
29384;SDS011;16367;48.736;9.218;2023-02-16T05:36:08;17.20;;;7.72;;
29384;SDS011;16367;48.736;9.218;2023-02-16T05:38:10;17.08;;;7.60;;
29384;SDS011;16367;48.736;9.218;2023-02-16T05:40:13;17.70;;;7.47;;
29384;SDS011;16367;48.736;9.218;2023-02-16T05:42:17;15.85;;;7.85;;
29384;SDS011;16367;48.736;9.218;2023-02-16T05:44:20;16.45;;;7.50;;
29384;SDS011;16367;48.736;9.218;2023-02-16T05:46:23;16.33;;;7.60;;
29384;SDS011;16367;48.736;9.218;2023-02-16T05:48:27;15.68;;;7.55;;
29384;SDS011;16367;48.736;9.218;2023-02-16T05:50:29;19.08;;;8.68;;
29384;SDS011;16367;48.736;9.218;2023-02-16T05:52:32;15.45;;;7.35;;
29384;SDS011;16367;48.736;9.218;2023-02-16T05:54:35;14.07;;;7.22;;
29384;SDS011;16367;48.736;9.218;2023-02-16T05:56:37;16.45;;;8.02;;
29384;SDS011;16367;48.736;9.218;2023-02-16T05:58:41;15.38;;;7.20;;
29384;SDS011;16367;48.736;9.218;2023-02-16T06:00:44;16.35;;;7.32;;
29384;SDS011;16367;48.736;9.218;2023-02-16T06:02:47;17.20;;;7.60;;
29384;SDS011;16367;48.736;9.218;2023-02-16T06:04:50;18.33;;;7.82;;
29384;SDS011;16367;48.736;9.218;2023-02-16T06:06:52;18.83;;;7.78;;
29384;SDS011;16367;48.736;9.218;2023-02-16T06:08:55;20.15;;;8.43;;
29384;SDS011;16367;48.736;9.218;2023-02-16T06:10:58;14.45;;;7.03;;
29384;SDS011;16367;48.736;9.218;2023-02-16T06:13:01;20.40;;;8.65;;
29384;SDS011;16367;48.736;9.218;2023-02-16T06:15:05;16.55;;;7.53;;
29384;SDS011;16367;48.736;9.218;2023-02-16T06:17:08;15.63;;;7.80;;
29384;SDS011;16367;48.736;9.218;2023-02-16T06:19:11;16.08;;;7.80;;
29384;SDS011;16367;48.736;9.218;2023-02-16T06:21:14;17.73;;;7.78;;
29384;SDS011;16367;48.736;9.218;2023-02-16T06:23:17;17.88;;;7.57;;
29384;SDS011;16367;48.736;9.218;2023-02-16T06:25:20;16.10;;;7.53;;
29384;SDS011;16367;48.736;9.218;2023-02-16T06:27:22;16.00;;;7.20;;
29384;SDS011;16367;48.736;9.218;2023-02-16T06:29:25;17.73;;;7.53;;
29384;SDS011;16367;48.736;9.218;2023-02-16T06:31:29;16.13;;;7.13;;
29384;SDS011;16367;48.736;9.218;2023-02-16T06:33:35;17.95;;;7.68;;
29384;SDS011;16367;48.736;9.218;2023-02-16T06:35:38;15.18;;;6.97;;
29384;SDS011;16367;48.736;9.218;2023-02-16T06:37:41;19.85;;;7.45;;
29384;SDS011;16367;48.736;9.218;2023-02-16T06:39:43;16.40;;;6.80;;
29384;SDS011;16367;48.736;9.218;2023-02-16T06:41:46;16.20;;;7.43;;
29384;SDS011;16367;48.736;9.218;2023-02-16T06:43:49;20.70;;;8.07;;
29384;SDS011;16367;48.736;9.218;2023-02-16T06:45:51;18.65;;;7.97;;
29384;SDS011;16367;48.736;9.218;2023-02-16T06:47:55;18.80;;;8.18;;
29384;SDS011;16367;48.736;9.218;2023-02-16T06:49:58;18.45;;;7.82;;
29384;SDS011;16367;48.736;9.218;2023-02-16T06:52:01;15.93;;;7.63;;
29384;SDS011;16367;48.736;9.218;2023-02-16T06:54:04;20.90;;;7.80;;
29384;SDS011;16367;48.736;9.218;2023-02-16T06:56:07;15.73;;;7.05;;
29384;SDS011;16367;48.736;9.218;2023-02-16T06:58:09;16.45;;;7.57;;
29384;SDS011;16367;48.736;9.218;2023-02-16T07:00:13;16.35;;;7.60;;
29384;SDS011;16367;48.736;9.218;2023-02-16T07:02:16;17.40;;;7.60;;
29384;SDS011;16367;48.736;9.218;2023-02-16T07:04:20;15.38;;;6.97;;
29384;SDS011;16367;48.736;9.218;2023-02-16T07:06:24;18.10;;;7.82;;
29384;SDS011;16367;48.736;9.218;2023-02-16T07:08:28;17.15;;;7.88;;
29384;SDS011;16367;48.736;9.218;2023-02-16T07:10:31;21.83;;;9.45;;
29384;SDS011;16367;48.736;9.218;2023-02-16T07:12:49;15.82;;;8.20;;
29384;SDS011;16367;48.736;9.218;2023-02-16T07:14:52;20.73;;;8.38;;
29384;SDS011;16367;48.736;9.218;2023-02-16T07:16:54;17.70;;;7.65;;
29384;SDS011;16367;48.736;9.218;2023-02-16T07:19:03;19.45;;;8.35;;
29384;SDS011;16367;48.736;9.218;2023-02-16T07:21:08;18.88;;;7.32;;
29384;SDS011;16367;48.736;9.218;2023-02-16T07:23:11;17.60;;;8.25;;
29384;SDS011;16367;48.736;9.218;2023-02-16T07:25:13;17.70;;;7.90;;
29384;SDS011;16367;48.736;9.218;2023-02-16T07:27:16;19.83;;;8.35;;
29384;SDS011;16367;48.736;9.218;2023-02-16T07:29:19;18.05;;;9.10;;
29384;SDS011;16367;48.736;9.218;2023-02-16T07:31:22;24.05;;;9.55;;
29384;SDS011;16367;48.736;9.218;2023-02-16T07:33:26;23.85;;;8.15;;
29384;SDS011;16367;48.736;9.218;2023-02-16T07:35:29;17.88;;;7.95;;
29384;SDS011;16367;48.736;9.218;2023-02-16T07:37:33;18.88;;;8.32;;
29384;SDS011;16367;48.736;9.218;2023-02-16T07:39:36;23.40;;;7.78;;
29384;SDS011;16367;48.736;9.218;2023-02-16T07:41:38;16.17;;;7.70;;
29384;SDS011;16367;48.736;9.218;2023-02-16T07:43:41;15.15;;;7.22;;
29384;SDS011;16367;48.736;9.218;2023-02-16T07:45:44;21.38;;;8.60;;
29384;SDS011;16367;48.736;9.218;2023-02-16T07:47:47;19.63;;;8.23;;
29384;SDS011;16367;48.736;9.218;2023-02-16T07:49:49;17.85;;;7.43;;
29384;SDS011;16367;48.736;9.218;2023-02-16T07:51:52;15.30;;;7.75;;
29384;SDS011;16367;48.736;9.218;2023-02-16T07:53:56;18.70;;;8.27;;
29384;SDS011;16367;48.736;9.218;2023-02-16T07:56:01;17.35;;;7.65;;
29384;SDS011;16367;48.736;9.218;2023-02-16T07:58:03;16.58;;;8.57;;
29384;SDS011;16367;48.736;9.218;2023-02-16T08:00:06;15.10;;;7.43;;
29384;SDS011;16367;48.736;9.218;2023-02-16T08:02:13;20.63;;;7.63;;
29384;SDS011;16367;48.736;9.218;2023-02-16T08:04:17;17.95;;;7.80;;
29384;SDS011;16367;48.736;9.218;2023-02-16T08:06:19;16.58;;;7.57;;
29384;SDS011;16367;48.736;9.218;2023-02-16T08:08:22;15.82;;;7.90;;
29384;SDS011;16367;48.736;9.218;2023-02-16T08:10:27;16.85;;;8.50;;
29384;SDS011;16367;48.736;9.218;2023-02-16T08:12:30;16.48;;;7.80;;
29384;SDS011;16367;48.736;9.218;2023-02-16T08:14:33;14.55;;;7.75;;
29384;SDS011;16367;48.736;9.218;2023-02-16T08:16:35;15.55;;;7.35;;
29384;SDS011;16367;48.736;9.218;2023-02-16T08:18:39;16.25;;;7.43;;
29384;SDS011;16367;48.736;9.218;2023-02-16T08:20:42;15.30;;;7.85;;
29384;SDS011;16367;48.736;9.218;2023-02-16T08:23:04;18.52;;;8.05;;
29384;SDS011;16367;48.736;9.218;2023-02-16T08:25:08;14.32;;;7.80;;
29384;SDS011;16367;48.736;9.218;2023-02-16T08:27:13;18.77;;;7.53;;
29384;SDS011;16367;48.736;9.218;2023-02-16T08:29:15;16.58;;;7.70;;
29384;SDS011;16367;48.736;9.218;2023-02-16T08:31:19;17.73;;;8.55;;
29384;SDS011;16367;48.736;9.218;2023-02-16T08:33:25;19.80;;;8.55;;
29384;SDS011;16367;48.736;9.218;2023-02-16T08:35:27;16.85;;;8.80;;
29384;SDS011;16367;48.736;9.218;2023-02-16T08:37:32;16.27;;;7.32;;
29384;SDS011;16367;48.736;9.218;2023-02-16T08:39:35;17.10;;;8.10;;
29384;SDS011;16367;48.736;9.218;2023-02-16T08:41:38;18.40;;;8.90;;
29384;SDS011;16367;48.736;9.218;2023-02-16T08:43:42;15.18;;;7.57;;
29384;SDS011;16367;48.736;9.218;2023-02-16T08:45:45;15.13;;;7.78;;
29384;SDS011;16367;48.736;9.218;2023-02-16T08:47:48;14.43;;;7.85;;
29384;SDS011;16367;48.736;9.218;2023-02-16T08:49:53;17.50;;;8.30;;
29384;SDS011;16367;48.736;9.218;2023-02-16T08:51:56;15.80;;;7.50;;
29384;SDS011;16367;48.736;9.218;2023-02-16T08:54:02;16.05;;;6.95;;
29384;SDS011;16367;48.736;9.218;2023-02-16T08:56:07;15.10;;;7.50;;
29384;SDS011;16367;48.736;9.218;2023-02-16T08:58:11;14.77;;;7.50;;
29384;SDS011;16367;48.736;9.218;2023-02-16T09:00:17;15.95;;;8.00;;
29384;SDS011;16367;48.736;9.218;2023-02-16T09:02:35;16.70;;;8.00;;
29384;SDS011;16367;48.736;9.218;2023-02-16T09:04:38;18.38;;;8.63;;
29384;SDS011;16367;48.736;9.218;2023-02-16T09:06:41;17.17;;;8.02;;
29384;SDS011;16367;48.736;9.218;2023-02-16T09:08:49;17.13;;;8.18;;
29384;SDS011;16367;48.736;9.218;2023-02-16T09:10:52;18.80;;;7.90;;
29384;SDS011;16367;48.736;9.218;2023-02-16T09:12:55;16.30;;;7.20;;
29384;SDS011;16367;48.736;9.218;2023-02-16T09:14:58;17.75;;;7.88;;
29384;SDS011;16367;48.736;9.218;2023-02-16T09:17:02;17.38;;;7.88;;
29384;SDS011;16367;48.736;9.218;2023-02-16T09:19:05;15.68;;;7.57;;
29384;SDS011;16367;48.736;9.218;2023-02-16T09:21:09;15.60;;;7.68;;
29384;SDS011;16367;48.736;9.218;2023-02-16T09:25:17;16.63;;;7.57;;
29384;SDS011;16367;48.736;9.218;2023-02-16T09:27:20;15.55;;;8.30;;
29384;SDS011;16367;48.736;9.218;2023-02-16T09:29:23;17.80;;;7.80;;
29384;SDS011;16367;48.736;9.218;2023-02-16T09:31:26;16.55;;;7.63;;
29384;SDS011;16367;48.736;9.218;2023-02-16T09:33:32;14.52;;;7.57;;
29384;SDS011;16367;48.736;9.218;2023-02-16T09:35:36;16.23;;;7.60;;
29384;SDS011;16367;48.736;9.218;2023-02-16T09:37:40;13.82;;;7.60;;
29384;SDS011;16367;48.736;9.218;2023-02-16T09:39:43;18.30;;;8.15;;
29384;SDS011;16367;48.736;9.218;2023-02-16T09:41:51;18.15;;;8.32;;
29384;SDS011;16367;48.736;9.218;2023-02-16T09:44:02;17.23;;;8.27;;
29384;SDS011;16367;48.736;9.218;2023-02-16T09:46:15;17.75;;;7.45;;
29384;SDS011;16367;48.736;9.218;2023-02-16T09:48:23;13.55;;;7.47;;
29384;SDS011;16367;48.736;9.218;2023-02-16T09:50:36;15.77;;;7.80;;
29384;SDS011;16367;48.736;9.218;2023-02-16T09:52:56;18.42;;;8.13;;
29384;SDS011;16367;48.736;9.218;2023-02-16T09:55:03;17.52;;;7.75;;
29384;SDS011;16367;48.736;9.218;2023-02-16T09:57:11;14.85;;;8.43;;
29384;SDS011;16367;48.736;9.218;2023-02-16T09:59:24;15.68;;;7.65;;
29384;SDS011;16367;48.736;9.218;2023-02-16T10:03:51;12.50;;;6.22;;
29384;SDS011;16367;48.736;9.218;2023-02-16T10:06:04;15.02;;;7.55;;
29384;SDS011;16367;48.736;9.218;2023-02-16T10:08:20;13.15;;;6.95;;
29384;SDS011;16367;48.736;9.218;2023-02-16T10:10:30;13.45;;;6.20;;
29384;SDS011;16367;48.736;9.218;2023-02-16T10:12:41;15.85;;;7.35;;
29384;SDS011;16367;48.736;9.218;2023-02-16T10:14:50;13.48;;;6.40;;
29384;SDS011;16367;48.736;9.218;2023-02-16T10:17:00;15.30;;;6.45;;
29384;SDS011;16367;48.736;9.218;2023-02-16T10:19:10;15.98;;;6.40;;
29384;SDS011;16367;48.736;9.218;2023-02-16T10:21:23;13.27;;;6.25;;
29384;SDS011;16367;48.736;9.218;2023-02-16T10:23:36;12.75;;;6.32;;
29384;SDS011;16367;48.736;9.218;2023-02-16T10:25:47;12.65;;;6.05;;
29384;SDS011;16367;48.736;9.218;2023-02-16T10:27:58;11.43;;;5.63;;
29384;SDS011;16367;48.736;9.218;2023-02-16T10:30:13;11.15;;;6.13;;
29384;SDS011;16367;48.736;9.218;2023-02-16T10:32:20;9.93;;;5.18;;
29384;SDS011;16367;48.736;9.218;2023-02-16T10:34:32;11.38;;;5.57;;
29384;SDS011;16367;48.736;9.218;2023-02-16T10:36:52;13.45;;;5.90;;
29384;SDS011;16367;48.736;9.218;2023-02-16T10:39:13;11.02;;;4.93;;
29384;SDS011;16367;48.736;9.218;2023-02-16T10:41:24;14.25;;;6.03;;
29384;SDS011;16367;48.736;9.218;2023-02-16T10:43:36;10.35;;;4.75;;
29384;SDS011;16367;48.736;9.218;2023-02-16T10:45:45;10.90;;;5.28;;
29384;SDS011;16367;48.736;9.218;2023-02-16T10:47:52;10.85;;;4.95;;
29384;SDS011;16367;48.736;9.218;2023-02-16T10:49:55;9.90;;;4.70;;
29384;SDS011;16367;48.736;9.218;2023-02-16T10:52:00;10.60;;;4.65;;
29384;SDS011;16367;48.736;9.218;2023-02-16T10:54:04;9.30;;;4.35;;
29384;SDS011;16367;48.736;9.218;2023-02-16T10:56:23;11.10;;;4.30;;
29384;SDS011;16367;48.736;9.218;2023-02-16T10:58:49;10.32;;;3.92;;
29384;SDS011;16367;48.736;9.218;2023-02-16T11:00:54;12.05;;;4.30;;
29384;SDS011;16367;48.736;9.218;2023-02-16T11:03:01;11.88;;;4.25;;
29384;SDS011;16367;48.736;9.218;2023-02-16T11:05:26;11.60;;;5.25;;
29384;SDS011;16367;48.736;9.218;2023-02-16T11:07:35;8.25;;;3.67;;
29384;SDS011;16367;48.736;9.218;2023-02-16T11:09:54;8.77;;;3.72;;
29384;SDS011;16367;48.736;9.218;2023-02-16T11:11:58;11.20;;;4.25;;
29384;SDS011;16367;48.736;9.218;2023-02-16T11:14:02;9.00;;;3.72;;
29384;SDS011;16367;48.736;9.218;2023-02-16T11:16:09;9.50;;;4.00;;
29384;SDS011;16367;48.736;9.218;2023-02-16T11:18:21;8.48;;;3.72;;
29384;SDS011;16367;48.736;9.218;2023-02-16T11:20:30;8.25;;;3.80;;
29384;SDS011;16367;48.736;9.218;2023-02-16T11:22:36;8.77;;;3.70;;
29384;SDS011;16367;48.736;9.218;2023-02-16T11:24:41;8.95;;;3.42;;
29384;SDS011;16367;48.736;9.218;2023-02-16T11:26:44;10.23;;;4.03;;
29384;SDS011;16367;48.736;9.218;2023-02-16T11:29:05;7.90;;;3.72;;
29384;SDS011;16367;48.736;9.218;2023-02-16T11:31:21;9.30;;;3.80;;
29384;SDS011;16367;48.736;9.218;2023-02-16T11:33:30;9.68;;;3.88;;
29384;SDS011;16367;48.736;9.218;2023-02-16T11:35:40;11.20;;;3.97;;
29384;SDS011;16367;48.736;9.218;2023-02-16T11:37:46;8.65;;;4.38;;
29384;SDS011;16367;48.736;9.218;2023-02-16T11:39:49;9.02;;;3.10;;
29384;SDS011;16367;48.736;9.218;2023-02-16T11:41:55;9.15;;;3.55;;
29384;SDS011;16367;48.736;9.218;2023-02-16T11:44:01;7.30;;;3.17;;
29384;SDS011;16367;48.736;9.218;2023-02-16T11:46:06;9.40;;;4.32;;
29384;SDS011;16367;48.736;9.218;2023-02-16T11:48:23;7.55;;;3.55;;
29384;SDS011;16367;48.736;9.218;2023-02-16T11:50:29;9.00;;;3.40;;
29384;SDS011;16367;48.736;9.218;2023-02-16T11:52:32;7.78;;;3.13;;
29384;SDS011;16367;48.736;9.218;2023-02-16T11:54:37;7.50;;;3.45;;
29384;SDS011;16367;48.736;9.218;2023-02-16T11:56:59;8.82;;;4.22;;
29384;SDS011;16367;48.736;9.218;2023-02-16T11:59:05;8.27;;;3.47;;
29384;SDS011;16367;48.736;9.218;2023-02-16T12:01:14;8.55;;;3.35;;
29384;SDS011;16367;48.736;9.218;2023-02-16T12:03:28;8.88;;;3.22;;
29384;SDS011;16367;48.736;9.218;2023-02-16T12:05:42;7.57;;;3.58;;
29384;SDS011;16367;48.736;9.218;2023-02-16T12:08:03;7.63;;;3.40;;
29384;SDS011;16367;48.736;9.218;2023-02-16T12:10:19;7.13;;;3.42;;
29384;SDS011;16367;48.736;9.218;2023-02-16T12:12:30;6.75;;;2.70;;
29384;SDS011;16367;48.736;9.218;2023-02-16T12:14:39;8.85;;;3.25;;
29384;SDS011;16367;48.736;9.218;2023-02-16T12:16:53;6.55;;;3.28;;
29384;SDS011;16367;48.736;9.218;2023-02-16T12:19:07;7.90;;;2.95;;
29384;SDS011;16367;48.736;9.218;2023-02-16T12:21:22;9.77;;;3.47;;
29384;SDS011;16367;48.736;9.218;2023-02-16T12:23:36;8.43;;;3.75;;
29384;SDS011;16367;48.736;9.218;2023-02-16T12:25:43;8.50;;;3.53;;
29384;SDS011;16367;48.736;9.218;2023-02-16T12:28:00;8.02;;;3.45;;
29384;SDS011;16367;48.736;9.218;2023-02-16T12:30:19;8.52;;;3.67;;
29384;SDS011;16367;48.736;9.218;2023-02-16T12:32:38;8.88;;;3.42;;
29384;SDS011;16367;48.736;9.218;2023-02-16T12:34:52;7.15;;;2.90;;
29384;SDS011;16367;48.736;9.218;2023-02-16T12:37:04;8.02;;;2.90;;
29384;SDS011;16367;48.736;9.218;2023-02-16T12:39:16;8.85;;;3.00;;
29384;SDS011;16367;48.736;9.218;2023-02-16T12:41:22;6.95;;;3.30;;
29384;SDS011;16367;48.736;9.218;2023-02-16T12:43:34;8.90;;;3.45;;
29384;SDS011;16367;48.736;9.218;2023-02-16T12:45:41;7.82;;;3.00;;
29384;SDS011;16367;48.736;9.218;2023-02-16T12:47:48;8.25;;;3.50;;
29384;SDS011;16367;48.736;9.218;2023-02-16T12:49:57;7.53;;;3.40;;
29384;SDS011;16367;48.736;9.218;2023-02-16T12:52:05;7.28;;;3.03;;